Marion, MA (02738)

1:42 PM EST on February 06, 2016 (GMT -0500)
Marion Inner Harbor | | Change Station
CLOSE
Current Station
Personal Weather Station
Location: Marion, MA
Elevation: 18 ft
Nearby Weather Stations

Elev 18 ft 41.70 °N, 70.76 °W | Updated 1 minute ago

Partly Cloudy
Partly Cloudy
34.8 °F
Feels Like 29 °F
N
7.0
Wind Variable Wind from SW
Gusts 12.0 mph

Today
High -- | Low -- °F
--% Chance of Precip.
Yesterday
High -- | Low -- °F
Precip. -- in
Pressure 30.34 in
Visibility 10.0 miles
Clouds Clear
Windchill 29 °F
Dew Point 22 °F
Humidity 58%
Rainfall 0.09 in
Snow Depth Not available.
6:50 AM 5:04 PM
Waning Crescent, 4% visible
METAR KEWB 061753Z 20011KT 10SM CLR 01/M07 A3034 RMK AO2 SLP273 T00061067 58024 $
Pressure 30.34 in
Visibility 10.0 miles
Clouds Clear
Windchill 29 °F
Dew Point 22 °F
Humidity 58%
Rainfall 0.09 in
Snow Depth Not available.
6:50 AM 5:04 PM
Waning Crescent, 4% visible
METAR KEWB 061753Z 20011KT 10SM CLR 01/M07 A3034 RMK AO2 SLP273 T00061067 58024 $

10-Day Weather Forecast

Almanac

Astronomy

Feb. 06, 2016 Rise Set
Actual Time
Civil Twilight
Nautical Twilight
Astronomical Twilight
Moon
Length of Visible Light
Length of Day
Tomorrow will be .
, % of the Moon is Illuminated

Today's Extremes

State Highs State Lows

Community

WunderPhotos

Upload Photos

1,891,033 photos uploaded!

WunderBlog® & News

Nearby

Air Quality

  Air Quality AQ Index Pollutant
Not available.

Snow Depth

Station Depth Elevation

Earthquake Activity

City Distance Mag. Time & Date
Minimum magnitude displayed is 2.5.

Coastal Water Temperatures

Place Temperature

Stations

Nearby Weather Stations

Station Location Temp. Windchill Dew Point Humidity Wind Precip. Elev Updated Type
                   

Watches & Warnings

There are currently no watches in effect.